sensor_id;sensor_type;location;lat;lon;timestamp;P1;durP1;ratioP1;P2;durP2;ratioP2
55409;SDS011;41279;43.546;16.426;2022-10-31T00:01:37;20.60;;;10.75;;
55409;SDS011;41279;43.546;16.426;2022-10-31T00:04:03;22.25;;;11.15;;
55409;SDS011;41279;43.546;16.426;2022-10-31T00:06:29;20.52;;;9.68;;
55409;SDS011;41279;43.546;16.426;2022-10-31T00:08:56;18.30;;;9.88;;
55409;SDS011;41279;43.546;16.426;2022-10-31T00:11:23;19.00;;;10.63;;
55409;SDS011;41279;43.546;16.426;2022-10-31T00:13:49;21.13;;;10.48;;
55409;SDS011;41279;43.546;16.426;2022-10-31T00:16:15;21.40;;;10.63;;
55409;SDS011;41279;43.546;16.426;2022-10-31T00:18:52;19.00;;;9.70;;
55409;SDS011;41279;43.546;16.426;2022-10-31T00:21:19;19.63;;;8.73;;
55409;SDS011;41279;43.546;16.426;2022-10-31T00:23:45;18.80;;;8.63;;
55409;SDS011;41279;43.546;16.426;2022-10-31T00:26:11;19.88;;;8.93;;
55409;SDS011;41279;43.546;16.426;2022-10-31T00:28:36;18.85;;;8.18;;
55409;SDS011;41279;43.546;16.426;2022-10-31T00:31:02;20.88;;;8.90;;
55409;SDS011;41279;43.546;16.426;2022-10-31T00:33:32;18.02;;;9.23;;
55409;SDS011;41279;43.546;16.426;2022-10-31T00:35:59;20.83;;;9.20;;
55409;SDS011;41279;43.546;16.426;2022-10-31T00:38:38;17.05;;;7.90;;
55409;SDS011;41279;43.546;16.426;2022-10-31T00:41:04;17.95;;;7.57;;
55409;SDS011;41279;43.546;16.426;2022-10-31T00:43:29;15.93;;;8.00;;
55409;SDS011;41279;43.546;16.426;2022-10-31T00:45:54;16.20;;;9.05;;
55409;SDS011;41279;43.546;16.426;2022-10-31T00:48:20;18.08;;;8.45;;
55409;SDS011;41279;43.546;16.426;2022-10-31T00:50:45;18.55;;;8.70;;
55409;SDS011;41279;43.546;16.426;2022-10-31T00:53:17;14.85;;;8.32;;
55409;SDS011;41279;43.546;16.426;2022-10-31T00:55:42;16.58;;;8.40;;
55409;SDS011;41279;43.546;16.426;2022-10-31T00:58:08;20.15;;;9.18;;
55409;SDS011;41279;43.546;16.426;2022-10-31T01:00:33;17.17;;;8.57;;
55409;SDS011;41279;43.546;16.426;2022-10-31T01:02:58;18.38;;;9.05;;
55409;SDS011;41279;43.546;16.426;2022-10-31T01:05:24;18.08;;;8.32;;
55409;SDS011;41279;43.546;16.426;2022-10-31T01:07:49;18.17;;;8.20;;
55409;SDS011;41279;43.546;16.426;2022-10-31T01:10:14;15.75;;;8.32;;
55409;SDS011;41279;43.546;16.426;2022-10-31T01:12:41;18.48;;;8.73;;
55409;SDS011;41279;43.546;16.426;2022-10-31T01:15:10;21.08;;;8.68;;
55409;SDS011;41279;43.546;16.426;2022-10-31T01:17:37;14.73;;;8.27;;
55409;SDS011;41279;43.546;16.426;2022-10-31T01:20:04;15.88;;;8.38;;
55409;SDS011;41279;43.546;16.426;2022-10-31T01:22:30;18.08;;;8.32;;
55409;SDS011;41279;43.546;16.426;2022-10-31T01:24:55;17.10;;;8.20;;
55409;SDS011;41279;43.546;16.426;2022-10-31T01:27:21;19.58;;;8.25;;
55409;SDS011;41279;43.546;16.426;2022-10-31T01:29:46;22.17;;;9.15;;
55409;SDS011;41279;43.546;16.426;2022-10-31T01:32:11;20.83;;;8.00;;
55409;SDS011;41279;43.546;16.426;2022-10-31T01:34:37;14.57;;;7.38;;
55409;SDS011;41279;43.546;16.426;2022-10-31T01:37:02;17.30;;;7.57;;
55409;SDS011;41279;43.546;16.426;2022-10-31T01:39:27;16.25;;;7.63;;
55409;SDS011;41279;43.546;16.426;2022-10-31T01:41:53;19.10;;;7.43;;
55409;SDS011;41279;43.546;16.426;2022-10-31T01:49:11;18.50;;;7.93;;
55409;SDS011;41279;43.546;16.426;2022-10-31T01:51:41;19.23;;;7.38;;
55409;SDS011;41279;43.546;16.426;2022-10-31T01:54:18;15.38;;;7.15;;
55409;SDS011;41279;43.546;16.426;2022-10-31T01:56:48;20.15;;;7.53;;
55409;SDS011;41279;43.546;16.426;2022-10-31T01:59:15;20.60;;;7.63;;
55409;SDS011;41279;43.546;16.426;2022-10-31T02:01:44;16.48;;;7.75;;
55409;SDS011;41279;43.546;16.426;2022-10-31T02:04:11;13.95;;;7.10;;
55409;SDS011;41279;43.546;16.426;2022-10-31T02:06:59;16.88;;;7.68;;
55409;SDS011;41279;43.546;16.426;2022-10-31T02:09:34;16.45;;;7.75;;
55409;SDS011;41279;43.546;16.426;2022-10-31T02:12:02;15.95;;;6.85;;
55409;SDS011;41279;43.546;16.426;2022-10-31T02:14:29;15.73;;;8.13;;
55409;SDS011;41279;43.546;16.426;2022-10-31T02:16:56;21.10;;;8.05;;
55409;SDS011;41279;43.546;16.426;2022-10-31T02:19:26;18.13;;;8.27;;
55409;SDS011;41279;43.546;16.426;2022-10-31T02:21:58;20.85;;;7.80;;
55409;SDS011;41279;43.546;16.426;2022-10-31T02:32:50;18.27;;;7.90;;
55409;SDS011;41279;43.546;16.426;2022-10-31T02:40:49;15.63;;;8.75;;
55409;SDS011;41279;43.546;16.426;2022-10-31T02:43:27;21.45;;;8.57;;
55409;SDS011;41279;43.546;16.426;2022-10-31T02:46:14;18.58;;;8.43;;
55409;SDS011;41279;43.546;16.426;2022-10-31T02:48:48;16.63;;;7.75;;
55409;SDS011;41279;43.546;16.426;2022-10-31T02:51:18;19.20;;;7.82;;
55409;SDS011;41279;43.546;16.426;2022-10-31T02:53:44;16.80;;;8.00;;
55409;SDS011;41279;43.546;16.426;2022-10-31T02:58:42;14.88;;;7.55;;
55409;SDS011;41279;43.546;16.426;2022-10-31T03:01:20;16.25;;;8.32;;
55409;SDS011;41279;43.546;16.426;2022-10-31T03:06:57;18.65;;;8.70;;
55409;SDS011;41279;43.546;16.426;2022-10-31T03:09:50;20.05;;;8.07;;
55409;SDS011;41279;43.546;16.426;2022-10-31T03:14:52;20.45;;;8.68;;
55409;SDS011;41279;43.546;16.426;2022-10-31T03:17:28;19.02;;;7.85;;
55409;SDS011;41279;43.546;16.426;2022-10-31T03:20:06;19.08;;;8.60;;
55409;SDS011;41279;43.546;16.426;2022-10-31T03:22:34;19.95;;;9.05;;
55409;SDS011;41279;43.546;16.426;2022-10-31T03:25:02;18.95;;;7.80;;
55409;SDS011;41279;43.546;16.426;2022-10-31T03:27:30;17.70;;;7.80;;
55409;SDS011;41279;43.546;16.426;2022-10-31T03:29:57;14.80;;;8.15;;
55409;SDS011;41279;43.546;16.426;2022-10-31T03:32:28;15.07;;;7.45;;
55409;SDS011;41279;43.546;16.426;2022-10-31T03:35:07;18.88;;;7.32;;
55409;SDS011;41279;43.546;16.426;2022-10-31T03:37:35;19.83;;;7.85;;
55409;SDS011;41279;43.546;16.426;2022-10-31T03:40:02;13.80;;;6.80;;
55409;SDS011;41279;43.546;16.426;2022-10-31T03:42:32;15.98;;;7.10;;
55409;SDS011;41279;43.546;16.426;2022-10-31T03:45:02;16.77;;;7.35;;
55409;SDS011;41279;43.546;16.426;2022-10-31T03:47:33;14.02;;;6.85;;
55409;SDS011;41279;43.546;16.426;2022-10-31T03:50:01;14.90;;;7.57;;
55409;SDS011;41279;43.546;16.426;2022-10-31T03:52:35;16.30;;;7.90;;
55409;SDS011;41279;43.546;16.426;2022-10-31T03:55:10;13.52;;;6.63;;
55409;SDS011;41279;43.546;16.426;2022-10-31T03:57:48;15.68;;;6.78;;
55409;SDS011;41279;43.546;16.426;2022-10-31T04:00:20;16.90;;;6.05;;
55409;SDS011;41279;43.546;16.426;2022-10-31T04:03:29;17.80;;;6.60;;
55409;SDS011;41279;43.546;16.426;2022-10-31T04:05:37;26.00;;;11.38;;
55409;SDS011;41279;43.546;16.426;2022-10-31T04:08:07;16.27;;;6.90;;
55409;SDS011;41279;43.546;16.426;2022-10-31T04:10:37;13.65;;;5.95;;
55409;SDS011;41279;43.546;16.426;2022-10-31T04:13:05;21.13;;;6.15;;
55409;SDS011;41279;43.546;16.426;2022-10-31T04:15:33;13.98;;;5.88;;
55409;SDS011;41279;43.546;16.426;2022-10-31T04:18:00;12.25;;;5.82;;
55409;SDS011;41279;43.546;16.426;2022-10-31T04:20:29;20.02;;;6.10;;
55409;SDS011;41279;43.546;16.426;2022-10-31T04:22:58;16.83;;;6.07;;
55409;SDS011;41279;43.546;16.426;2022-10-31T04:25:24;15.77;;;7.60;;
55409;SDS011;41279;43.546;16.426;2022-10-31T04:27:49;14.80;;;5.50;;
55409;SDS011;41279;43.546;16.426;2022-10-31T04:30:15;19.38;;;6.72;;
55409;SDS011;41279;43.546;16.426;2022-10-31T04:32:40;25.02;;;6.70;;
55409;SDS011;41279;43.546;16.426;2022-10-31T04:35:05;15.90;;;6.70;;
55409;SDS011;41279;43.546;16.426;2022-10-31T04:37:31;19.73;;;6.22;;
55409;SDS011;41279;43.546;16.426;2022-10-31T04:39:56;17.77;;;5.95;;
55409;SDS011;41279;43.546;16.426;2022-10-31T04:42:22;19.45;;;7.60;;
55409;SDS011;41279;43.546;16.426;2022-10-31T04:44:47;17.25;;;6.78;;
55409;SDS011;41279;43.546;16.426;2022-10-31T04:47:12;28.17;;;13.00;;
55409;SDS011;41279;43.546;16.426;2022-10-31T04:49:38;19.33;;;6.93;;
55409;SDS011;41279;43.546;16.426;2022-10-31T04:52:03;20.70;;;6.13;;
55409;SDS011;41279;43.546;16.426;2022-10-31T04:54:29;16.77;;;6.40;;
55409;SDS011;41279;43.546;16.426;2022-10-31T04:56:54;16.73;;;5.57;;
55409;SDS011;41279;43.546;16.426;2022-10-31T04:59:19;24.42;;;6.78;;
55409;SDS011;41279;43.546;16.426;2022-10-31T05:01:45;17.55;;;5.82;;
55409;SDS011;41279;43.546;16.426;2022-10-31T05:04:10;13.77;;;5.50;;
55409;SDS011;41279;43.546;16.426;2022-10-31T05:06:36;20.50;;;6.18;;
55409;SDS011;41279;43.546;16.426;2022-10-31T05:09:01;22.58;;;6.13;;
55409;SDS011;41279;43.546;16.426;2022-10-31T05:11:26;20.42;;;6.38;;
55409;SDS011;41279;43.546;16.426;2022-10-31T05:13:52;15.70;;;5.72;;
55409;SDS011;41279;43.546;16.426;2022-10-31T05:16:17;15.80;;;6.65;;
55409;SDS011;41279;43.546;16.426;2022-10-31T05:18:42;15.73;;;6.70;;
55409;SDS011;41279;43.546;16.426;2022-10-31T05:21:08;25.20;;;9.88;;
55409;SDS011;41279;43.546;16.426;2022-10-31T05:23:33;24.83;;;7.13;;
55409;SDS011;41279;43.546;16.426;2022-10-31T05:25:58;18.30;;;6.65;;
55409;SDS011;41279;43.546;16.426;2022-10-31T05:28:24;14.90;;;5.95;;
55409;SDS011;41279;43.546;16.426;2022-10-31T05:30:49;20.13;;;7.75;;
55409;SDS011;41279;43.546;16.426;2022-10-31T05:33:15;16.67;;;6.30;;
55409;SDS011;41279;43.546;16.426;2022-10-31T05:35:40;21.77;;;7.78;;
55409;SDS011;41279;43.546;16.426;2022-10-31T05:38:05;25.90;;;7.40;;
55409;SDS011;41279;43.546;16.426;2022-10-31T05:40:31;18.45;;;7.60;;
55409;SDS011;41279;43.546;16.426;2022-10-31T05:42:56;20.38;;;7.38;;
55409;SDS011;41279;43.546;16.426;2022-10-31T05:45:23;18.35;;;7.15;;
55409;SDS011;41279;43.546;16.426;2022-10-31T05:47:53;20.75;;;6.47;;
55409;SDS011;41279;43.546;16.426;2022-10-31T05:50:28;18.15;;;7.05;;
55409;SDS011;41279;43.546;16.426;2022-10-31T05:53:04;18.92;;;7.95;;
55409;SDS011;41279;43.546;16.426;2022-10-31T05:55:30;20.95;;;8.50;;
55409;SDS011;41279;43.546;16.426;2022-10-31T05:57:56;16.95;;;7.13;;
55409;SDS011;41279;43.546;16.426;2022-10-31T06:00:22;22.95;;;7.18;;
55409;SDS011;41279;43.546;16.426;2022-10-31T06:02:48;20.10;;;6.90;;
55409;SDS011;41279;43.546;16.426;2022-10-31T06:05:14;20.80;;;7.85;;
55409;SDS011;41279;43.546;16.426;2022-10-31T06:07:41;25.38;;;7.85;;
55409;SDS011;41279;43.546;16.426;2022-10-31T06:10:07;16.38;;;7.15;;
55409;SDS011;41279;43.546;16.426;2022-10-31T06:12:33;21.20;;;7.05;;
55409;SDS011;41279;43.546;16.426;2022-10-31T06:15:03;23.13;;;7.68;;
55409;SDS011;41279;43.546;16.426;2022-10-31T06:17:33;23.25;;;6.78;;
55409;SDS011;41279;43.546;16.426;2022-10-31T06:19:59;16.75;;;7.85;;
55409;SDS011;41279;43.546;16.426;2022-10-31T06:22:24;18.90;;;7.25;;
55409;SDS011;41279;43.546;16.426;2022-10-31T06:24:49;21.42;;;7.55;;
55409;SDS011;41279;43.546;16.426;2022-10-31T06:27:15;18.27;;;7.05;;
55409;SDS011;41279;43.546;16.426;2022-10-31T06:29:40;25.27;;;6.93;;
55409;SDS011;41279;43.546;16.426;2022-10-31T06:32:05;19.33;;;6.72;;
55409;SDS011;41279;43.546;16.426;2022-10-31T06:34:31;19.13;;;7.10;;
55409;SDS011;41279;43.546;16.426;2022-10-31T06:36:56;17.63;;;6.53;;
55409;SDS011;41279;43.546;16.426;2022-10-31T06:39:21;13.52;;;6.07;;
55409;SDS011;41279;43.546;16.426;2022-10-31T06:41:54;17.60;;;6.95;;
55409;SDS011;41279;43.546;16.426;2022-10-31T06:44:19;15.88;;;6.20;;
55409;SDS011;41279;43.546;16.426;2022-10-31T06:46:47;18.35;;;6.43;;
55409;SDS011;41279;43.546;16.426;2022-10-31T06:49:13;14.85;;;6.97;;
55409;SDS011;41279;43.546;16.426;2022-10-31T06:51:38;17.00;;;6.13;;
55409;SDS011;41279;43.546;16.426;2022-10-31T06:54:03;20.95;;;7.38;;
55409;SDS011;41279;43.546;16.426;2022-10-31T06:56:29;14.77;;;6.43;;
55409;SDS011;41279;43.546;16.426;2022-10-31T06:58:54;15.00;;;6.32;;
55409;SDS011;41279;43.546;16.426;2022-10-31T07:01:20;13.27;;;6.05;;
55409;SDS011;41279;43.546;16.426;2022-10-31T07:03:45;14.27;;;5.82;;
55409;SDS011;41279;43.546;16.426;2022-10-31T07:06:10;17.50;;;7.65;;
55409;SDS011;41279;43.546;16.426;2022-10-31T07:08:36;14.27;;;6.43;;
55409;SDS011;41279;43.546;16.426;2022-10-31T07:11:01;19.35;;;7.32;;
55409;SDS011;41279;43.546;16.426;2022-10-31T07:13:26;13.50;;;6.35;;
55409;SDS011;41279;43.546;16.426;2022-10-31T07:15:53;19.25;;;6.28;;
55409;SDS011;41279;43.546;16.426;2022-10-31T07:18:20;17.42;;;6.38;;
55409;SDS011;41279;43.546;16.426;2022-10-31T07:20:46;19.85;;;5.90;;
55409;SDS011;41279;43.546;16.426;2022-10-31T07:23:12;21.55;;;7.05;;
55409;SDS011;41279;43.546;16.426;2022-10-31T07:25:38;17.42;;;6.72;;
55409;SDS011;41279;43.546;16.426;2022-10-31T07:28:04;14.82;;;6.68;;
55409;SDS011;41279;43.546;16.426;2022-10-31T07:30:30;15.10;;;5.78;;
55409;SDS011;41279;43.546;16.426;2022-10-31T07:32:55;14.70;;;5.78;;
55409;SDS011;41279;43.546;16.426;2022-10-31T07:35:23;15.90;;;5.28;;
55409;SDS011;41279;43.546;16.426;2022-10-31T07:37:52;12.43;;;5.25;;
55409;SDS011;41279;43.546;16.426;2022-10-31T07:40:25;15.70;;;5.47;;
55409;SDS011;41279;43.546;16.426;2022-10-31T07:42:51;11.00;;;5.10;;
55409;SDS011;41279;43.546;16.426;2022-10-31T07:45:18;13.57;;;4.97;;
55409;SDS011;41279;43.546;16.426;2022-10-31T07:47:45;12.77;;;5.97;;
55409;SDS011;41279;43.546;16.426;2022-10-31T07:50:18;12.18;;;4.63;;
55409;SDS011;41279;43.546;16.426;2022-10-31T07:52:45;11.85;;;5.35;;
55409;SDS011;41279;43.546;16.426;2022-10-31T07:55:10;11.68;;;5.45;;
55409;SDS011;41279;43.546;16.426;2022-10-31T07:57:36;16.40;;;5.72;;
55409;SDS011;41279;43.546;16.426;2022-10-31T08:00:05;12.73;;;5.35;;
55409;SDS011;41279;43.546;16.426;2022-10-31T08:02:33;14.55;;;5.70;;
55409;SDS011;41279;43.546;16.426;2022-10-31T08:04:58;14.45;;;5.90;;
55409;SDS011;41279;43.546;16.426;2022-10-31T08:07:24;14.52;;;5.63;;
55409;SDS011;41279;43.546;16.426;2022-10-31T08:09:51;12.38;;;5.15;;
55409;SDS011;41279;43.546;16.426;2022-10-31T08:12:16;12.25;;;5.45;;
55409;SDS011;41279;43.546;16.426;2022-10-31T08:14:42;12.68;;;5.13;;
55409;SDS011;41279;43.546;16.426;2022-10-31T08:17:07;14.40;;;5.82;;
55409;SDS011;41279;43.546;16.426;2022-10-31T08:19:33;12.63;;;5.60;;
55409;SDS011;41279;43.546;16.426;2022-10-31T08:21:58;10.82;;;5.35;;
55409;SDS011;41279;43.546;16.426;2022-10-31T08:24:24;11.82;;;5.40;;
55409;SDS011;41279;43.546;16.426;2022-10-31T08:26:49;12.88;;;5.38;;
55409;SDS011;41279;43.546;16.426;2022-10-31T08:29:15;12.35;;;4.90;;
55409;SDS011;41279;43.546;16.426;2022-10-31T08:31:41;12.15;;;4.68;;
55409;SDS011;41279;43.546;16.426;2022-10-31T08:34:07;14.70;;;5.20;;
55409;SDS011;41279;43.546;16.426;2022-10-31T08:36:32;18.85;;;4.93;;
55409;SDS011;41279;43.546;16.426;2022-10-31T08:38:57;15.48;;;5.47;;
55409;SDS011;41279;43.546;16.426;2022-10-31T08:41:23;10.35;;;4.93;;
55409;SDS011;41279;43.546;16.426;2022-10-31T08:43:48;14.40;;;5.95;;
55409;SDS011;41279;43.546;16.426;2022-10-31T08:46:14;14.43;;;5.13;;
55409;SDS011;41279;43.546;16.426;2022-10-31T08:48:39;14.38;;;6.00;;
55409;SDS011;41279;43.546;16.426;2022-10-31T08:51:04;12.63;;;5.28;;
55409;SDS011;41279;43.546;16.426;2022-10-31T08:53:30;13.30;;;5.47;;
55409;SDS011;41279;43.546;16.426;2022-10-31T08:55:56;11.93;;;5.47;;
55409;SDS011;41279;43.546;16.426;2022-10-31T08:58:22;13.20;;;4.97;;
55409;SDS011;41279;43.546;16.426;2022-10-31T09:00:49;13.63;;;5.55;;
55409;SDS011;41279;43.546;16.426;2022-10-31T09:03:27;13.50;;;5.53;;
55409;SDS011;41279;43.546;16.426;2022-10-31T09:05:55;12.13;;;4.95;;
55409;SDS011;41279;43.546;16.426;2022-10-31T09:08:24;15.70;;;7.35;;
55409;SDS011;41279;43.546;16.426;2022-10-31T09:10:50;12.63;;;5.18;;
55409;SDS011;41279;43.546;16.426;2022-10-31T09:13:18;14.05;;;5.13;;
55409;SDS011;41279;43.546;16.426;2022-10-31T09:15:45;14.80;;;5.07;;
55409;SDS011;41279;43.546;16.426;2022-10-31T09:18:13;12.45;;;5.10;;
55409;SDS011;41279;43.546;16.426;2022-10-31T09:20:41;10.18;;;4.70;;
55409;SDS011;41279;43.546;16.426;2022-10-31T09:23:14;13.00;;;4.70;;
55409;SDS011;41279;43.546;16.426;2022-10-31T09:25:41;13.27;;;5.30;;
55409;SDS011;41279;43.546;16.426;2022-10-31T09:28:08;11.15;;;5.03;;
55409;SDS011;41279;43.546;16.426;2022-10-31T09:30:36;15.93;;;5.95;;
55409;SDS011;41279;43.546;16.426;2022-10-31T09:33:03;9.40;;;4.78;;
55409;SDS011;41279;43.546;16.426;2022-10-31T09:35:30;11.02;;;4.68;;
55409;SDS011;41279;43.546;16.426;2022-10-31T09:37:57;10.90;;;5.20;;
55409;SDS011;41279;43.546;16.426;2022-10-31T09:40:33;15.30;;;5.60;;
55409;SDS011;41279;43.546;16.426;2022-10-31T09:43:09;10.32;;;4.45;;
55409;SDS011;41279;43.546;16.426;2022-10-31T09:45:52;12.10;;;4.32;;
55409;SDS011;41279;43.546;16.426;2022-10-31T09:50:57;14.23;;;4.60;;
55409;SDS011;41279;43.546;16.426;2022-10-31T09:55:58;10.63;;;4.82;;
55409;SDS011;41279;43.546;16.426;2022-10-31T09:58:25;10.45;;;4.90;;
55409;SDS011;41279;43.546;16.426;2022-10-31T10:00:57;12.40;;;4.53;;
55409;SDS011;41279;43.546;16.426;2022-10-31T10:03:30;9.00;;;4.50;;
55409;SDS011;41279;43.546;16.426;2022-10-31T10:08:39;10.10;;;4.85;;
55409;SDS011;41279;43.546;16.426;2022-10-31T10:16:26;14.43;;;5.35;;
55409;SDS011;41279;43.546;16.426;2022-10-31T10:24:27;10.40;;;4.75;;
55409;SDS011;41279;43.546;16.426;2022-10-31T10:32:40;15.30;;;5.10;;
55409;SDS011;41279;43.546;16.426;2022-10-31T10:37:40;10.02;;;4.90;;
55409;SDS011;41279;43.546;16.426;2022-10-31T10:40:19;12.63;;;4.93;;
55409;SDS011;41279;43.546;16.426;2022-10-31T10:59:53;12.40;;;5.10;;
55409;SDS011;41279;43.546;16.426;2022-10-31T11:02:19;13.13;;;5.10;;
55409;SDS011;41279;43.546;16.426;2022-10-31T11:04:49;15.70;;;5.57;;
55409;SDS011;41279;43.546;16.426;2022-10-31T11:07:17;12.85;;;5.13;;
55409;SDS011;41279;43.546;16.426;2022-10-31T11:09:43;10.55;;;5.22;;
55409;SDS011;41279;43.546;16.426;2022-10-31T11:12:20;15.07;;;5.38;;
55409;SDS011;41279;43.546;16.426;2022-10-31T11:14:49;12.45;;;5.43;;
55409;SDS011;41279;43.546;16.426;2022-10-31T11:17:28;13.43;;;5.72;;
55409;SDS011;41279;43.546;16.426;2022-10-31T11:20:00;12.55;;;5.00;;
55409;SDS011;41279;43.546;16.426;2022-10-31T11:22:26;11.07;;;5.18;;
55409;SDS011;41279;43.546;16.426;2022-10-31T11:24:51;14.05;;;5.32;;
55409;SDS011;41279;43.546;16.426;2022-10-31T11:27:20;13.23;;;4.90;;
55409;SDS011;41279;43.546;16.426;2022-10-31T11:29:47;10.15;;;5.18;;
55409;SDS011;41279;43.546;16.426;2022-10-31T11:32:24;14.00;;;4.85;;
55409;SDS011;41279;43.546;16.426;2022-10-31T11:34:52;10.45;;;4.43;;
55409;SDS011;41279;43.546;16.426;2022-10-31T11:37:21;10.85;;;5.45;;
55409;SDS011;41279;43.546;16.426;2022-10-31T11:39:53;10.02;;;4.72;;
55409;SDS011;41279;43.546;16.426;2022-10-31T11:42:24;10.95;;;4.80;;
55409;SDS011;41279;43.546;16.426;2022-10-31T11:44:52;11.07;;;4.35;;
55409;SDS011;41279;43.546;16.426;2022-10-31T11:47:23;11.00;;;4.88;;
55409;SDS011;41279;43.546;16.426;2022-10-31T11:49:52;10.23;;;4.70;;
55409;SDS011;41279;43.546;16.426;2022-10-31T11:52:25;13.77;;;5.25;;
55409;SDS011;41279;43.546;16.426;2022-10-31T11:55:01;11.18;;;4.63;;
55409;SDS011;41279;43.546;16.426;2022-10-31T11:57:46;11.00;;;4.45;;
55409;SDS011;41279;43.546;16.426;2022-10-31T12:00:20;10.43;;;4.25;;
55409;SDS011;41279;43.546;16.426;2022-10-31T12:02:46;14.82;;;6.78;;
55409;SDS011;41279;43.546;16.426;2022-10-31T12:05:17;11.80;;;4.90;;
55409;SDS011;41279;43.546;16.426;2022-10-31T12:07:45;12.27;;;4.47;;
55409;SDS011;41279;43.546;16.426;2022-10-31T12:10:11;10.32;;;4.40;;
55409;SDS011;41279;43.546;16.426;2022-10-31T12:12:54;13.52;;;4.90;;
55409;SDS011;41279;43.546;16.426;2022-10-31T12:15:32;13.05;;;4.63;;
55409;SDS011;41279;43.546;16.426;2022-10-31T12:26:22;9.88;;;4.43;;
55409;SDS011;41279;43.546;16.426;2022-10-31T12:29:14;11.57;;;4.93;;
55409;SDS011;41279;43.546;16.426;2022-10-31T12:32:20;12.77;;;4.90;;
55409;SDS011;41279;43.546;16.426;2022-10-31T12:38:02;11.50;;;4.78;;
55409;SDS011;41279;43.546;16.426;2022-10-31T12:43:45;13.10;;;5.15;;
55409;SDS011;41279;43.546;16.426;2022-10-31T12:49:10;12.05;;;4.65;;
55409;SDS011;41279;43.546;16.426;2022-10-31T12:57:09;15.98;;;6.07;;
55409;SDS011;41279;43.546;16.426;2022-10-31T12:59:52;12.48;;;5.10;;
55409;SDS011;41279;43.546;16.426;2022-10-31T13:07:58;14.55;;;4.82;;
55409;SDS011;41279;43.546;16.426;2022-10-31T13:10:29;10.52;;;5.18;;
55409;SDS011;41279;43.546;16.426;2022-10-31T13:13:06;13.70;;;5.07;;
55409;SDS011;41279;43.546;16.426;2022-10-31T13:15:45;16.13;;;7.85;;
55409;SDS011;41279;43.546;16.426;2022-10-31T13:18:18;12.32;;;5.68;;
55409;SDS011;41279;43.546;16.426;2022-10-31T13:20:51;13.50;;;5.57;;
55409;SDS011;41279;43.546;16.426;2022-10-31T13:25:54;12.48;;;5.20;;
55409;SDS011;41279;43.546;16.426;2022-10-31T13:31:05;12.25;;;5.63;;
55409;SDS011;41279;43.546;16.426;2022-10-31T13:33:35;12.85;;;6.10;;
55409;SDS011;41279;43.546;16.426;2022-10-31T13:36:20;12.98;;;6.40;;
55409;SDS011;41279;43.546;16.426;2022-10-31T13:44:22;16.05;;;6.05;;
55409;SDS011;41279;43.546;16.426;2022-10-31T13:46:52;18.02;;;6.40;;
55409;SDS011;41279;43.546;16.426;2022-10-31T13:49:25;13.30;;;6.50;;
55409;SDS011;41279;43.546;16.426;2022-10-31T13:51:50;11.35;;;5.28;;
55409;SDS011;41279;43.546;16.426;2022-10-31T13:54:23;12.90;;;5.18;;
55409;SDS011;41279;43.546;16.426;2022-10-31T13:56:56;11.93;;;5.32;;
55409;SDS011;41279;43.546;16.426;2022-10-31T13:59:22;13.07;;;5.20;;
55409;SDS011;41279;43.546;16.426;2022-10-31T14:01:51;16.13;;;5.75;;
55409;SDS011;41279;43.546;16.426;2022-10-31T14:04:24;13.18;;;5.60;;
55409;SDS011;41279;43.546;16.426;2022-10-31T14:12:01;10.93;;;5.63;;
55409;SDS011;41279;43.546;16.426;2022-10-31T14:14:32;13.65;;;5.70;;
55409;SDS011;41279;43.546;16.426;2022-10-31T14:17:04;13.48;;;5.10;;
55409;SDS011;41279;43.546;16.426;2022-10-31T14:19:31;10.90;;;5.00;;
55409;SDS011;41279;43.546;16.426;2022-10-31T14:21:56;11.82;;;5.05;;
55409;SDS011;41279;43.546;16.426;2022-10-31T14:27:00;11.57;;;5.53;;
55409;SDS011;41279;43.546;16.426;2022-10-31T14:29:28;11.77;;;4.97;;
55409;SDS011;41279;43.546;16.426;2022-10-31T14:32:37;10.85;;;5.38;;
55409;SDS011;41279;43.546;16.426;2022-10-31T14:34:55;19.13;;;7.63;;
55409;SDS011;41279;43.546;16.426;2022-10-31T14:43:13;14.57;;;5.63;;
55409;SDS011;41279;43.546;16.426;2022-10-31T14:45:49;13.32;;;5.63;;
55409;SDS011;41279;43.546;16.426;2022-10-31T14:51:22;20.27;;;7.03;;
55409;SDS011;41279;43.546;16.426;2022-10-31T14:53:53;14.50;;;6.00;;
55409;SDS011;41279;43.546;16.426;2022-10-31T14:56:27;16.20;;;5.75;;
55409;SDS011;41279;43.546;16.426;2022-10-31T14:58:56;11.85;;;4.70;;
55409;SDS011;41279;43.546;16.426;2022-10-31T15:01:26;12.27;;;5.47;;
55409;SDS011;41279;43.546;16.426;2022-10-31T15:04:07;11.60;;;5.38;;
55409;SDS011;41279;43.546;16.426;2022-10-31T15:06:45;11.48;;;4.93;;
55409;SDS011;41279;43.546;16.426;2022-10-31T15:09:24;13.45;;;5.72;;
55409;SDS011;41279;43.546;16.426;2022-10-31T15:11:50;17.15;;;8.13;;
55409;SDS011;41279;43.546;16.426;2022-10-31T15:14:22;15.65;;;6.68;;
55409;SDS011;41279;43.546;16.426;2022-10-31T15:16:52;15.43;;;5.85;;
55409;SDS011;41279;43.546;16.426;2022-10-31T15:19:20;13.48;;;5.75;;
55409;SDS011;41279;43.546;16.426;2022-10-31T15:21:50;12.55;;;6.00;;
55409;SDS011;41279;43.546;16.426;2022-10-31T15:24:17;14.38;;;6.82;;
55409;SDS011;41279;43.546;16.426;2022-10-31T15:26:44;10.77;;;5.95;;
55409;SDS011;41279;43.546;16.426;2022-10-31T15:29:13;13.95;;;5.60;;
55409;SDS011;41279;43.546;16.426;2022-10-31T15:31:50;13.07;;;5.50;;
55409;SDS011;41279;43.546;16.426;2022-10-31T15:34:41;13.23;;;5.60;;
55409;SDS011;41279;43.546;16.426;2022-10-31T15:37:16;14.15;;;6.28;;
55409;SDS011;41279;43.546;16.426;2022-10-31T15:39:43;13.50;;;6.80;;
55409;SDS011;41279;43.546;16.426;2022-10-31T15:42:20;15.40;;;5.55;;
55409;SDS011;41279;43.546;16.426;2022-10-31T15:45:05;13.45;;;6.60;;
55409;SDS011;41279;43.546;16.426;2022-10-31T15:47:45;15.80;;;5.68;;
55409;SDS011;41279;43.546;16.426;2022-10-31T15:50:18;18.88;;;8.38;;
55409;SDS011;41279;43.546;16.426;2022-10-31T15:52:52;12.07;;;5.78;;
55409;SDS011;41279;43.546;16.426;2022-10-31T15:55:27;15.65;;;6.00;;
55409;SDS011;41279;43.546;16.426;2022-10-31T15:57:58;20.92;;;9.70;;
55409;SDS011;41279;43.546;16.426;2022-10-31T16:00:31;26.55;;;14.70;;
55409;SDS011;41279;43.546;16.426;2022-10-31T16:05:37;114.72;;;45.70;;
55409;SDS011;41279;43.546;16.426;2022-10-31T16:08:19;97.15;;;42.65;;
55409;SDS011;41279;43.546;16.426;2022-10-31T16:10:56;45.38;;;20.77;;
55409;SDS011;41279;43.546;16.426;2022-10-31T16:13:31;19.33;;;9.43;;
55409;SDS011;41279;43.546;16.426;2022-10-31T16:16:03;19.00;;;8.35;;
55409;SDS011;41279;43.546;16.426;2022-10-31T16:18:38;22.67;;;8.82;;
55409;SDS011;41279;43.546;16.426;2022-10-31T16:21:06;24.67;;;10.20;;
55409;SDS011;41279;43.546;16.426;2022-10-31T16:23:33;24.40;;;9.18;;
55409;SDS011;41279;43.546;16.426;2022-10-31T16:25:58;23.17;;;7.78;;
55409;SDS011;41279;43.546;16.426;2022-10-31T16:28:25;20.02;;;7.85;;
55409;SDS011;41279;43.546;16.426;2022-10-31T16:30:52;22.95;;;7.95;;
55409;SDS011;41279;43.546;16.426;2022-10-31T16:35:56;15.98;;;7.82;;
55409;SDS011;41279;43.546;16.426;2022-10-31T16:38:23;17.52;;;7.90;;
55409;SDS011;41279;43.546;16.426;2022-10-31T16:40:49;18.25;;;7.28;;
55409;SDS011;41279;43.546;16.426;2022-10-31T16:43:17;21.58;;;8.02;;
55409;SDS011;41279;43.546;16.426;2022-10-31T16:45:44;18.42;;;6.55;;